createdAt,value
2018-09-30T00:00:58.729Z,2
2018-09-30T00:03:59.056Z,2.1
2018-09-30T00:06:58.899Z,2.2
2018-09-30T00:09:58.814Z,2
2018-09-30T00:12:58.805Z,2
2018-09-30T00:15:59.227Z,2.1
2018-09-30T00:18:58.819Z,2.4
2018-09-30T00:21:58.873Z,2.1
2018-09-30T00:24:59.021Z,2.4
2018-09-30T00:27:58.815Z,2.4
2018-09-30T00:30:58.896Z,2
2018-09-30T00:33:59.070Z,2
2018-09-30T00:36:58.971Z,2.2
2018-09-30T00:39:59.119Z,2.3
2018-09-30T00:42:58.808Z,2.1
2018-09-30T00:45:58.856Z,2
2018-09-30T00:48:58.964Z,1.9
2018-09-30T00:51:58.944Z,1.8
2018-09-30T00:54:58.972Z,1.9
2018-09-30T00:57:58.752Z,1.8
2018-09-30T01:00:58.633Z,1.9
2018-09-30T01:03:59.088Z,2
2018-09-30T01:06:58.857Z,2.1
2018-09-30T01:09:58.909Z,1.8
2018-09-30T01:12:58.784Z,1.9
2018-09-30T01:15:58.970Z,1.8
2018-09-30T01:18:58.933Z,1.8
2018-09-30T01:21:59.123Z,2.3
2018-09-30T01:24:58.723Z,2.1
2018-09-30T01:27:58.763Z,1.9
2018-09-30T01:30:58.981Z,1.7
2018-09-30T01:33:58.818Z,1.7
2018-09-30T01:36:58.736Z,1.9
2018-09-30T01:39:59.442Z,1.9
2018-09-30T01:42:58.796Z,1.9
2018-09-30T01:45:58.924Z,1.9
2018-09-30T01:48:58.719Z,2.6
2018-09-30T01:51:58.763Z,2.1
2018-09-30T01:54:58.883Z,1.8
2018-09-30T01:57:59.022Z,1.8
2018-09-30T02:00:58.710Z,1.7
2018-09-30T02:03:58.949Z,1.7
2018-09-30T02:06:58.826Z,1.7
2018-09-30T02:09:58.864Z,1.8
2018-09-30T02:12:59.002Z,2.3
2018-09-30T02:15:58.965Z,1.9
2018-09-30T02:18:58.792Z,1.9
2018-09-30T02:21:58.837Z,1.8
2018-09-30T02:24:58.729Z,1.7
2018-09-30T02:27:58.970Z,1.7
2018-09-30T02:30:58.751Z,1.8
2018-09-30T02:33:58.798Z,2
2018-09-30T02:36:59.423Z,1.9
2018-09-30T02:39:58.854Z,1.7
2018-09-30T02:42:58.860Z,1.6
2018-09-30T02:45:58.730Z,1.7
2018-09-30T02:48:58.798Z,1.7
2018-09-30T02:51:58.848Z,1.6
2018-09-30T02:54:58.804Z,1.8
2018-09-30T02:57:59.157Z,1.7
2018-09-30T03:00:58.644Z,2
2018-09-30T03:03:58.691Z,1.8
2018-09-30T03:06:58.671Z,1.7
2018-09-30T03:09:58.691Z,1.9
2018-09-30T03:12:58.865Z,1.7
2018-09-30T03:15:58.789Z,1.6
2018-09-30T03:18:58.938Z,1.7
2018-09-30T03:21:58.883Z,1.6
2018-09-30T03:24:58.881Z,1.5
2018-09-30T03:27:58.635Z,2
2018-09-30T03:30:58.750Z,1.8
2018-09-30T03:33:58.696Z,1.7
2018-09-30T03:36:58.893Z,1.6
2018-09-30T03:39:58.934Z,1.6
2018-09-30T03:42:58.828Z,1.6
2018-09-30T03:45:58.964Z,1.6
2018-09-30T03:48:58.783Z,1.6
2018-09-30T03:51:58.799Z,1.7
2018-09-30T03:54:58.891Z,1.8
2018-09-30T03:57:59.085Z,1.7
2018-09-30T04:00:58.783Z,1.7
2018-09-30T04:03:58.765Z,1.5
2018-09-30T04:06:58.619Z,1.5
2018-09-30T04:09:59.959Z,1.6
2018-09-30T04:12:58.818Z,1.6
2018-09-30T04:15:58.735Z,1.5
2018-09-30T04:18:59.026Z,1.6
2018-09-30T04:21:58.877Z,1.6
2018-09-30T04:24:59.116Z,1.5
2018-09-30T04:27:58.776Z,1.5
2018-09-30T04:30:58.729Z,1.4
2018-09-30T04:33:58.885Z,1.6
2018-09-30T04:36:58.708Z,1.5
2018-09-30T04:39:58.996Z,1.5
2018-09-30T04:42:58.860Z,1.4
2018-09-30T04:45:58.786Z,1.7
2018-09-30T04:48:58.607Z,1.5
2018-09-30T04:51:58.724Z,1.6
2018-09-30T04:54:58.977Z,1.5
2018-09-30T04:57:58.742Z,1.5
2018-09-30T05:00:59.058Z,1.6
2018-09-30T05:03:59.138Z,2.3
2018-09-30T05:06:58.738Z,1.9
2018-09-30T05:09:58.701Z,1.7
2018-09-30T05:12:58.649Z,1.6
2018-09-30T05:16:00.270Z,1.7
2018-09-30T05:18:58.821Z,1.5
2018-09-30T05:21:58.697Z,1.5
2018-09-30T05:24:58.681Z,1.4
2018-09-30T05:27:58.649Z,1.4
2018-09-30T05:30:58.814Z,1.4
2018-09-30T05:33:59.178Z,1.4
2018-09-30T05:36:59.025Z,1.4
2018-09-30T05:39:58.715Z,1.5
2018-09-30T05:42:58.745Z,1.5
2018-09-30T05:45:58.923Z,1.8
2018-09-30T05:48:59.679Z,1.7
2018-09-30T05:51:59.016Z,1.8
2018-09-30T05:54:58.689Z,1.5
2018-09-30T05:58:00.581Z,1.5
2018-09-30T06:00:58.700Z,1.5
2018-09-30T06:04:00.011Z,1.5
2018-09-30T06:06:59.177Z,1.5
2018-09-30T06:09:58.742Z,1.5
2018-09-30T06:12:58.780Z,1.5
2018-09-30T06:15:59.898Z,1.5
2018-09-30T06:18:58.902Z,1.5
2018-09-30T06:21:58.541Z,1.7
2018-09-30T06:24:58.731Z,1.8
2018-09-30T06:27:58.914Z,1.7
2018-09-30T06:30:58.750Z,1.6
2018-09-30T06:33:58.673Z,1.6
2018-09-30T06:36:59.074Z,1.6
2018-09-30T06:39:58.816Z,1.6
2018-09-30T06:42:58.650Z,1.9
2018-09-30T06:45:58.721Z,1.9
2018-09-30T06:48:59.093Z,1.7
2018-09-30T06:51:58.643Z,1.6
2018-09-30T06:54:58.685Z,1.6
2018-09-30T06:57:59.009Z,1.6
2018-09-30T07:00:58.756Z,1.5
2018-09-30T07:03:58.737Z,1.6
2018-09-30T07:06:58.575Z,1.6
2018-09-30T07:09:58.773Z,1.6
2018-09-30T07:12:58.759Z,1.5
2018-09-30T07:15:59.035Z,1.6
2018-09-30T07:18:58.955Z,1.5
2018-09-30T07:21:58.735Z,1.6
2018-09-30T07:24:58.686Z,1.6
2018-09-30T07:27:58.780Z,1.6
2018-09-30T07:30:58.613Z,1.6
2018-09-30T07:33:58.721Z,1.6
2018-09-30T07:36:58.678Z,1.5
2018-09-30T07:39:58.785Z,1.6
2018-09-30T07:42:58.584Z,1.6
2018-09-30T07:45:58.721Z,1.6
2018-09-30T07:48:58.563Z,1.6
2018-09-30T07:51:58.656Z,1.6
2018-09-30T07:54:58.683Z,1.7
2018-09-30T07:57:58.463Z,1.7
2018-09-30T08:00:58.540Z,1.6
2018-09-30T08:03:58.870Z,1.7
2018-09-30T08:06:58.710Z,1.6
2018-09-30T08:09:58.639Z,1.5
2018-09-30T08:12:58.559Z,1.5
2018-09-30T08:15:58.683Z,1.5
2018-09-30T08:18:58.737Z,1.6
2018-09-30T08:21:58.603Z,1.5
2018-09-30T08:24:58.604Z,1.6
2018-09-30T08:27:58.553Z,1.6
2018-09-30T08:30:58.584Z,1.6
2018-09-30T08:33:58.862Z,1.5
2018-09-30T08:36:58.934Z,1.5
2018-09-30T08:40:00.283Z,1.5
2018-09-30T08:42:58.753Z,1.6
2018-09-30T08:45:58.637Z,1.6
2018-09-30T08:48:58.660Z,1.5
2018-09-30T08:51:58.629Z,1.5
2018-09-30T08:54:58.776Z,1.5
2018-09-30T08:57:58.450Z,1.7
2018-09-30T09:00:58.479Z,1.6
2018-09-30T09:03:58.557Z,1.8
2018-09-30T09:06:58.434Z,1.9
2018-09-30T09:09:59.608Z,1.7
2018-09-30T09:12:59.102Z,1.7
2018-09-30T09:15:58.695Z,1.6
2018-09-30T09:18:58.720Z,1.6
2018-09-30T09:21:58.653Z,1.5
2018-09-30T09:24:59.227Z,2.7
2018-09-30T09:27:59.448Z,4.5
2018-09-30T09:30:58.531Z,3.3
2018-09-30T09:33:58.668Z,3.1
2018-09-30T09:36:59.005Z,3.9
2018-09-30T09:39:59.163Z,3.4
2018-09-30T09:42:58.712Z,4.6
2018-09-30T09:45:58.742Z,5.3
2018-09-30T09:48:58.709Z,9.2
2018-09-30T09:51:58.801Z,9.7
2018-09-30T09:54:58.603Z,8.3
2018-09-30T09:57:59.269Z,6.7
2018-09-30T10:00:58.469Z,7.4
2018-09-30T10:03:58.726Z,8.5
2018-09-30T10:06:58.702Z,7
2018-09-30T10:09:58.741Z,6.7
2018-09-30T10:12:59.447Z,6
2018-09-30T10:15:58.702Z,6.1
2018-09-30T10:18:58.586Z,5.8
2018-09-30T10:21:59.064Z,5
2018-09-30T10:24:58.579Z,7.2
2018-09-30T10:27:58.433Z,5.6
2018-09-30T10:30:58.772Z,5
2018-09-30T10:33:58.531Z,4.2
2018-09-30T10:36:58.762Z,3.5
2018-09-30T10:39:59.129Z,3.8
2018-09-30T10:42:58.522Z,5
2018-09-30T10:45:58.653Z,5.5
2018-09-30T10:48:58.583Z,5.3
2018-09-30T10:51:58.539Z,6.1
2018-09-30T10:54:58.699Z,6.1
2018-09-30T10:57:58.667Z,5.4
2018-09-30T11:00:58.506Z,6.2
2018-09-30T11:03:58.647Z,7.1
2018-09-30T11:06:58.608Z,6.6
2018-09-30T11:09:59.496Z,6.1
2018-09-30T11:12:58.757Z,5.1
2018-09-30T11:15:59.218Z,5.9
2018-09-30T11:18:58.938Z,5.5
2018-09-30T11:21:58.748Z,4.4
2018-09-30T11:24:58.824Z,6.8
2018-09-30T11:35:06.210Z,8.4
2018-09-30T11:38:06.131Z,7.4
2018-09-30T11:41:05.955Z,5.3
2018-09-30T11:46:11.580Z,6.7
2018-09-30T11:51:12.400Z,4.5
2018-09-30T11:54:12.709Z,4.7
2018-09-30T11:57:12.664Z,5.5
2018-09-30T12:00:12.335Z,4.7
2018-09-30T12:03:12.561Z,5
2018-09-30T12:06:12.384Z,5.5
2018-09-30T12:09:12.563Z,5.3
2018-09-30T12:12:12.715Z,5.2
2018-09-30T12:15:12.429Z,5.8
2018-09-30T12:18:12.439Z,5.3
2018-09-30T12:21:12.326Z,4.7
2018-09-30T12:24:12.560Z,4.8
2018-09-30T12:27:12.360Z,5.8
2018-09-30T12:30:12.247Z,5.3
2018-09-30T12:33:12.598Z,4.6
2018-09-30T12:36:12.612Z,5.2
2018-09-30T12:39:13.141Z,4.4
2018-09-30T12:42:12.684Z,4.2
2018-09-30T12:45:12.430Z,4.1
2018-09-30T12:48:12.671Z,4.2
2018-09-30T12:51:12.403Z,4
2018-09-30T12:54:12.407Z,4.9
2018-09-30T13:06:42.994Z,16.4
2018-09-30T13:13:58.358Z,7.3
2018-09-30T13:20:38.467Z,7.2
2018-09-30T13:23:37.156Z,8.7
2018-09-30T13:24:37.009Z,11.5
2018-09-30T13:25:36.906Z,9.5
2018-09-30T13:28:37.138Z,9.2
2018-09-30T13:34:08.488Z,13
2018-09-30T13:37:08.320Z,12.2
2018-09-30T13:40:10.229Z,12.1
2018-09-30T13:43:08.447Z,9.7
2018-09-30T13:46:10.118Z,8.5
2018-09-30T13:49:08.513Z,7.3
2018-09-30T13:52:08.404Z,6.4
2018-09-30T13:55:08.358Z,7.6
2018-09-30T13:58:08.181Z,7.4
2018-09-30T14:01:08.300Z,6.6
2018-09-30T14:04:08.239Z,6.5
2018-09-30T14:07:09.893Z,5.5
2018-09-30T14:10:08.720Z,4.9
2018-09-30T14:13:08.062Z,4.3
2018-09-30T14:16:08.347Z,4.7
2018-09-30T14:19:08.551Z,5
2018-09-30T14:22:08.247Z,4.8
2018-09-30T14:25:08.334Z,4.4
2018-09-30T14:28:08.563Z,5.3
2018-09-30T14:31:08.198Z,5.2
2018-09-30T14:34:09.519Z,5.5
2018-09-30T14:37:08.553Z,8.2
2018-09-30T14:40:08.103Z,10.3
2018-09-30T14:43:08.263Z,8
2018-09-30T14:46:08.206Z,7.8
2018-09-30T14:49:08.143Z,7.8
2018-09-30T14:52:08.273Z,8.2
2018-09-30T14:55:08.111Z,7.2
2018-09-30T14:58:08.194Z,6.7
2018-09-30T15:01:08.061Z,7.9
2018-09-30T15:04:08.491Z,7.4
2018-09-30T15:07:13.303Z,6.9
2018-09-30T15:10:08.716Z,7.4
2018-09-30T15:13:08.200Z,7
2018-09-30T15:16:08.668Z,6
2018-09-30T15:19:08.211Z,5.3
2018-09-30T15:22:08.220Z,5.9
2018-09-30T15:28:52.047Z,7.2
2018-09-30T15:31:51.831Z,7.8
2018-09-30T15:34:52.010Z,6.6
2018-09-30T15:37:51.766Z,9.8
2018-09-30T15:40:51.747Z,11.2
2018-09-30T15:54:19.684Z,6.1
2018-09-30T15:57:19.451Z,7.6
2018-09-30T15:59:19.629Z,9.7
2018-09-30T16:02:19.288Z,8.6
2018-09-30T16:05:19.297Z,8.2
2018-09-30T16:08:20.402Z,8.6
2018-09-30T16:11:19.508Z,7.8
2018-09-30T16:14:19.292Z,7.9
2018-09-30T16:16:19.426Z,11.8
2018-09-30T16:19:19.281Z,10.1
2018-09-30T16:22:19.322Z,10.1
2018-09-30T16:25:19.436Z,9.2
2018-09-30T16:28:21.187Z,8.8
2018-09-30T16:31:19.572Z,8.9
2018-09-30T16:34:19.496Z,7.8
2018-09-30T16:37:19.324Z,8.3
2018-09-30T16:40:19.554Z,8.9
2018-09-30T16:43:19.336Z,9.4
2018-09-30T16:46:19.319Z,8.6
2018-09-30T16:49:19.315Z,6.5
2018-09-30T16:52:19.383Z,6.7
2018-09-30T16:55:19.534Z,6.1
2018-09-30T16:58:19.418Z,9.2
2018-09-30T17:03:28.209Z,5.8
2018-09-30T17:06:28.939Z,6.2
2018-09-30T17:09:28.404Z,6.4
2018-09-30T17:12:28.548Z,5.9
2018-09-30T17:15:28.377Z,6.7
2018-09-30T17:18:28.182Z,7.1
2018-09-30T17:21:28.251Z,6.7
2018-09-30T17:24:28.309Z,6.4
2018-09-30T17:27:28.270Z,5.6
2018-09-30T17:30:28.146Z,5.7
2018-09-30T17:33:28.086Z,5.9
2018-09-30T17:36:28.212Z,6.5
2018-09-30T17:39:28.134Z,6.8
2018-09-30T17:42:28.253Z,6.6
2018-09-30T17:45:28.184Z,6.3
2018-09-30T17:48:28.073Z,6.9
2018-09-30T17:51:28.427Z,6.1
2018-09-30T17:54:28.249Z,5.4
2018-09-30T17:57:28.349Z,5.3
2018-09-30T18:00:29.051Z,5.8
2018-09-30T18:03:28.407Z,5.6
2018-09-30T18:06:29.310Z,4.9
2018-09-30T18:09:28.234Z,5
2018-09-30T18:12:28.309Z,5.8
2018-09-30T18:15:28.158Z,5.1
2018-09-30T18:18:28.203Z,5.2
2018-09-30T18:21:28.269Z,4.9
2018-09-30T18:24:28.277Z,5.1
2018-09-30T18:27:28.175Z,5
2018-09-30T18:30:28.093Z,4.5
2018-09-30T18:33:28.301Z,4.3
2018-09-30T18:36:28.147Z,4.5
2018-09-30T18:39:28.295Z,6
2018-09-30T18:42:28.160Z,4.4
2018-09-30T18:45:29.084Z,3.7
2018-09-30T18:48:28.449Z,3.4
2018-09-30T18:51:28.215Z,3.5
2018-09-30T18:54:28.297Z,3.2
2018-09-30T18:57:28.387Z,3.1
2018-09-30T19:00:28.044Z,3.2
2018-09-30T19:03:28.254Z,3.9
2018-09-30T19:06:28.740Z,5
2018-09-30T19:09:28.151Z,5
2018-09-30T19:12:28.251Z,4.2
2018-09-30T19:15:28.363Z,5.1
2018-09-30T19:18:28.032Z,5.2
2018-09-30T19:21:28.874Z,4.3
2018-09-30T19:24:28.296Z,4.7
2018-09-30T19:27:28.210Z,4.4
2018-09-30T19:30:28.199Z,4.2
2018-09-30T19:33:28.111Z,4.1
2018-09-30T19:36:28.372Z,4.1
2018-09-30T19:39:28.229Z,4
2018-09-30T19:42:28.182Z,3.9
2018-09-30T19:45:28.235Z,4
2018-09-30T19:48:30.666Z,3.9
2018-09-30T19:51:28.224Z,4.7
2018-09-30T19:54:28.151Z,4.5
2018-09-30T19:57:28.127Z,4.3
2018-09-30T20:00:28.293Z,4.3
2018-09-30T20:03:28.118Z,4.3
2018-09-30T20:06:28.264Z,4.1
2018-09-30T20:09:29.676Z,3.9
2018-09-30T20:12:28.346Z,4.2
2018-09-30T20:15:28.354Z,4.5
2018-09-30T20:18:28.096Z,4.4
2018-09-30T20:21:28.457Z,5.3
2018-09-30T20:24:28.466Z,4.5
2018-09-30T20:27:28.144Z,4.1
2018-09-30T20:30:28.018Z,5.1
2018-09-30T20:33:28.286Z,4.1
2018-09-30T20:36:28.309Z,4
2018-09-30T20:39:28.120Z,3.8
2018-09-30T20:42:28.202Z,3.2
2018-09-30T20:45:27.980Z,3.3
2018-09-30T20:48:28.151Z,3.7
2018-09-30T20:51:28.255Z,3.8
2018-09-30T20:54:28.208Z,3.9
2018-09-30T20:57:28.304Z,6
2018-09-30T21:00:28.126Z,4.4
2018-09-30T21:03:28.186Z,4.8
2018-09-30T21:06:28.145Z,4
2018-09-30T21:09:28.142Z,3.9
2018-09-30T21:12:28.064Z,3.5
2018-09-30T21:15:28.146Z,3.2
2018-09-30T21:18:28.631Z,3
2018-09-30T21:21:28.187Z,3
2018-09-30T21:24:28.092Z,3.5
2018-09-30T21:27:28.310Z,3.3
2018-09-30T21:30:28.084Z,3
2018-09-30T21:33:28.265Z,3
2018-09-30T21:36:28.230Z,3.7
2018-09-30T21:39:28.807Z,3.3
2018-09-30T21:42:28.437Z,3.2
2018-09-30T21:45:28.104Z,3
2018-09-30T21:48:28.953Z,3.2
2018-09-30T21:51:28.143Z,3.5
2018-09-30T21:54:28.096Z,3.7
2018-09-30T21:57:28.308Z,3.3
2018-09-30T22:00:28.105Z,3.3
2018-09-30T22:03:28.055Z,3.1
2018-09-30T22:06:28.179Z,3
2018-09-30T22:09:28.016Z,2.9
2018-09-30T22:12:28.374Z,2.9
2018-09-30T22:15:28.217Z,2.9
2018-09-30T22:18:28.090Z,2.9
2018-09-30T22:21:28.474Z,3
2018-09-30T22:24:28.309Z,3.1
2018-09-30T22:27:28.357Z,3
2018-09-30T22:30:28.095Z,2.9
2018-09-30T22:33:28.000Z,2.8
2018-09-30T22:36:28.896Z,2.9
2018-09-30T22:39:28.375Z,2.8
2018-09-30T22:42:28.451Z,2.8
2018-09-30T22:45:28.357Z,3.4
2018-09-30T22:48:28.183Z,3.2
2018-09-30T22:51:28.034Z,3
2018-09-30T22:54:28.554Z,2.8
2018-09-30T22:57:28.144Z,2.9
2018-09-30T23:00:28.131Z,2.8
2018-09-30T23:03:27.963Z,2.8
2018-09-30T23:06:27.960Z,2.8
2018-09-30T23:09:28.488Z,2.8
2018-09-30T23:12:28.196Z,2.9
2018-09-30T23:15:28.454Z,3.1
2018-09-30T23:18:28.101Z,3
2018-09-30T23:21:28.249Z,2.9
2018-09-30T23:24:27.982Z,3
2018-09-30T23:27:28.122Z,2.9
2018-09-30T23:30:28.018Z,2.8
2018-09-30T23:33:28.205Z,2.8
2018-09-30T23:36:28.330Z,2.8
2018-09-30T23:39:28.318Z,2.9
2018-09-30T23:42:27.965Z,2.9
2018-09-30T23:45:27.990Z,2.8
2018-09-30T23:48:28.203Z,2.8
2018-09-30T23:51:27.993Z,2.9
2018-09-30T23:54:28.085Z,2.9
2018-09-30T23:57:28.215Z,2.7
